sensor_id;sensor_type;location;lat;lon;timestamp;P1;durP1;ratioP1;P2;durP2;ratioP2
8230;SDS011;4156;50.908;6.974;2023-05-27T00:01:05;11.37;;;4.07;;
8230;SDS011;4156;50.908;6.974;2023-05-27T00:03:30;10.37;;;4.47;;
8230;SDS011;4156;50.908;6.974;2023-05-27T00:05:57;7.93;;;3.70;;
8230;SDS011;4156;50.908;6.974;2023-05-27T00:08:23;11.27;;;4.00;;
8230;SDS011;4156;50.908;6.974;2023-05-27T00:10:48;9.53;;;3.70;;
8230;SDS011;4156;50.908;6.974;2023-05-27T00:13:14;10.60;;;3.67;;
8230;SDS011;4156;50.908;6.974;2023-05-27T00:15:40;10.80;;;4.17;;
8230;SDS011;4156;50.908;6.974;2023-05-27T00:18:05;11.70;;;4.43;;
8230;SDS011;4156;50.908;6.974;2023-05-27T00:20:31;13.77;;;4.17;;
8230;SDS011;4156;50.908;6.974;2023-05-27T00:22:57;9.33;;;4.40;;
8230;SDS011;4156;50.908;6.974;2023-05-27T00:25:24;13.70;;;4.33;;
8230;SDS011;4156;50.908;6.974;2023-05-27T00:27:50;11.37;;;4.33;;
8230;SDS011;4156;50.908;6.974;2023-05-27T00:30:15;11.17;;;4.40;;
8230;SDS011;4156;50.908;6.974;2023-05-27T00:32:41;10.87;;;4.70;;
8230;SDS011;4156;50.908;6.974;2023-05-27T00:35:07;12.63;;;4.80;;
8230;SDS011;4156;50.908;6.974;2023-05-27T00:37:33;14.60;;;4.03;;
8230;SDS011;4156;50.908;6.974;2023-05-27T00:39:59;12.57;;;4.23;;
8230;SDS011;4156;50.908;6.974;2023-05-27T00:42:25;9.17;;;3.60;;
8230;SDS011;4156;50.908;6.974;2023-05-27T00:44:50;15.10;;;4.80;;
8230;SDS011;4156;50.908;6.974;2023-05-27T00:47:17;8.97;;;3.80;;
8230;SDS011;4156;50.908;6.974;2023-05-27T00:49:42;11.33;;;4.40;;
8230;SDS011;4156;50.908;6.974;2023-05-27T00:52:09;6.33;;;3.40;;
8230;SDS011;4156;50.908;6.974;2023-05-27T00:54:35;10.27;;;3.87;;
8230;SDS011;4156;50.908;6.974;2023-05-27T00:57:00;10.13;;;4.23;;
8230;SDS011;4156;50.908;6.974;2023-05-27T00:59:29;9.53;;;3.83;;
8230;SDS011;4156;50.908;6.974;2023-05-27T01:01:56;8.93;;;3.70;;
8230;SDS011;4156;50.908;6.974;2023-05-27T01:04:21;10.70;;;3.97;;
8230;SDS011;4156;50.908;6.974;2023-05-27T01:09:35;11.00;;;4.13;;
8230;SDS011;4156;50.908;6.974;2023-05-27T01:15:11;11.57;;;3.90;;
8230;SDS011;4156;50.908;6.974;2023-05-27T01:17:37;8.60;;;3.87;;
8230;SDS011;4156;50.908;6.974;2023-05-27T01:20:07;13.80;;;4.80;;
8230;SDS011;4156;50.908;6.974;2023-05-27T01:22:39;12.70;;;4.33;;
8230;SDS011;4156;50.908;6.974;2023-05-27T01:25:07;10.67;;;4.10;;
8230;SDS011;4156;50.908;6.974;2023-05-27T01:27:33;6.90;;;3.87;;
8230;SDS011;4156;50.908;6.974;2023-05-27T01:29:58;10.40;;;4.23;;
8230;SDS011;4156;50.908;6.974;2023-05-27T01:32:27;10.03;;;3.80;;
8230;SDS011;4156;50.908;6.974;2023-05-27T01:37:59;9.47;;;4.00;;
8230;SDS011;4156;50.908;6.974;2023-05-27T01:40:27;8.97;;;4.13;;
8230;SDS011;4156;50.908;6.974;2023-05-27T01:42:56;12.57;;;4.07;;
8230;SDS011;4156;50.908;6.974;2023-05-27T01:45:24;15.77;;;4.70;;
8230;SDS011;4156;50.908;6.974;2023-05-27T01:47:51;11.53;;;4.27;;
8230;SDS011;4156;50.908;6.974;2023-05-27T01:50:16;12.27;;;3.90;;
8230;SDS011;4156;50.908;6.974;2023-05-27T01:52:42;13.53;;;4.17;;
8230;SDS011;4156;50.908;6.974;2023-05-27T01:55:08;13.40;;;4.67;;
8230;SDS011;4156;50.908;6.974;2023-05-27T01:57:34;10.00;;;4.67;;
8230;SDS011;4156;50.908;6.974;2023-05-27T01:59:59;12.20;;;4.13;;
8230;SDS011;4156;50.908;6.974;2023-05-27T02:02:25;8.93;;;3.87;;
8230;SDS011;4156;50.908;6.974;2023-05-27T02:04:51;9.33;;;3.90;;
8230;SDS011;4156;50.908;6.974;2023-05-27T02:07:16;11.53;;;3.93;;
8230;SDS011;4156;50.908;6.974;2023-05-27T02:09:42;12.40;;;4.93;;
8230;SDS011;4156;50.908;6.974;2023-05-27T02:12:09;10.57;;;4.73;;
8230;SDS011;4156;50.908;6.974;2023-05-27T02:14:37;7.67;;;3.43;;
8230;SDS011;4156;50.908;6.974;2023-05-27T02:17:03;13.33;;;5.27;;
8230;SDS011;4156;50.908;6.974;2023-05-27T02:19:30;12.27;;;4.30;;
8230;SDS011;4156;50.908;6.974;2023-05-27T02:21:55;13.87;;;4.37;;
8230;SDS011;4156;50.908;6.974;2023-05-27T02:24:21;8.60;;;4.30;;
8230;SDS011;4156;50.908;6.974;2023-05-27T02:26:46;10.33;;;3.80;;
8230;SDS011;4156;50.908;6.974;2023-05-27T02:29:12;11.10;;;3.70;;
8230;SDS011;4156;50.908;6.974;2023-05-27T02:31:37;13.33;;;4.47;;
8230;SDS011;4156;50.908;6.974;2023-05-27T02:34:03;10.37;;;3.60;;
8230;SDS011;4156;50.908;6.974;2023-05-27T02:36:28;13.40;;;4.77;;
8230;SDS011;4156;50.908;6.974;2023-05-27T02:38:54;12.77;;;4.13;;
8230;SDS011;4156;50.908;6.974;2023-05-27T02:41:20;12.67;;;4.13;;
8230;SDS011;4156;50.908;6.974;2023-05-27T02:43:45;17.37;;;4.80;;
8230;SDS011;4156;50.908;6.974;2023-05-27T02:46:11;15.17;;;5.00;;
8230;SDS011;4156;50.908;6.974;2023-05-27T02:48:36;13.47;;;4.57;;
8230;SDS011;4156;50.908;6.974;2023-05-27T02:51:02;12.50;;;5.17;;
8230;SDS011;4156;50.908;6.974;2023-05-27T02:53:27;13.97;;;4.13;;
8230;SDS011;4156;50.908;6.974;2023-05-27T02:55:53;12.57;;;4.80;;
8230;SDS011;4156;50.908;6.974;2023-05-27T02:58:18;15.07;;;4.80;;
8230;SDS011;4156;50.908;6.974;2023-05-27T03:00:44;8.30;;;3.63;;
8230;SDS011;4156;50.908;6.974;2023-05-27T03:03:09;8.37;;;3.83;;
8230;SDS011;4156;50.908;6.974;2023-05-27T03:05:35;8.77;;;4.03;;
8230;SDS011;4156;50.908;6.974;2023-05-27T03:08:01;13.47;;;4.80;;
8230;SDS011;4156;50.908;6.974;2023-05-27T03:10:27;9.07;;;4.27;;
8230;SDS011;4156;50.908;6.974;2023-05-27T03:12:53;12.30;;;4.20;;
8230;SDS011;4156;50.908;6.974;2023-05-27T03:15:22;13.23;;;3.80;;
8230;SDS011;4156;50.908;6.974;2023-05-27T03:17:47;12.23;;;4.73;;
8230;SDS011;4156;50.908;6.974;2023-05-27T03:20:13;10.40;;;4.00;;
8230;SDS011;4156;50.908;6.974;2023-05-27T03:22:38;11.00;;;4.27;;
8230;SDS011;4156;50.908;6.974;2023-05-27T03:25:04;10.53;;;3.97;;
8230;SDS011;4156;50.908;6.974;2023-05-27T03:27:30;11.70;;;4.37;;
8230;SDS011;4156;50.908;6.974;2023-05-27T03:29:57;13.67;;;4.60;;
8230;SDS011;4156;50.908;6.974;2023-05-27T03:32:22;15.57;;;5.03;;
8230;SDS011;4156;50.908;6.974;2023-05-27T03:34:48;15.77;;;3.70;;
8230;SDS011;4156;50.908;6.974;2023-05-27T03:37:13;8.90;;;4.03;;
8230;SDS011;4156;50.908;6.974;2023-05-27T03:39:39;9.43;;;4.33;;
8230;SDS011;4156;50.908;6.974;2023-05-27T03:42:05;16.13;;;4.23;;
8230;SDS011;4156;50.908;6.974;2023-05-27T03:44:31;18.70;;;5.00;;
8230;SDS011;4156;50.908;6.974;2023-05-27T03:46:57;14.87;;;4.67;;
8230;SDS011;4156;50.908;6.974;2023-05-27T03:49:22;11.40;;;4.53;;
8230;SDS011;4156;50.908;6.974;2023-05-27T03:51:48;9.97;;;4.43;;
8230;SDS011;4156;50.908;6.974;2023-05-27T03:54:14;14.47;;;4.67;;
8230;SDS011;4156;50.908;6.974;2023-05-27T03:56:39;10.80;;;4.03;;
8230;SDS011;4156;50.908;6.974;2023-05-27T03:59:05;13.50;;;5.07;;
8230;SDS011;4156;50.908;6.974;2023-05-27T04:01:31;14.60;;;4.70;;
8230;SDS011;4156;50.908;6.974;2023-05-27T04:03:57;13.83;;;4.67;;
8230;SDS011;4156;50.908;6.974;2023-05-27T04:06:23;10.97;;;4.60;;
8230;SDS011;4156;50.908;6.974;2023-05-27T04:08:48;12.70;;;4.47;;
8230;SDS011;4156;50.908;6.974;2023-05-27T04:11:14;10.17;;;4.53;;
8230;SDS011;4156;50.908;6.974;2023-05-27T04:13:40;12.40;;;4.37;;
8230;SDS011;4156;50.908;6.974;2023-05-27T04:16:05;11.50;;;4.33;;
8230;SDS011;4156;50.908;6.974;2023-05-27T04:18:32;9.17;;;4.33;;
8230;SDS011;4156;50.908;6.974;2023-05-27T04:20:58;11.90;;;4.53;;
8230;SDS011;4156;50.908;6.974;2023-05-27T04:23:24;13.20;;;4.20;;
8230;SDS011;4156;50.908;6.974;2023-05-27T04:25:50;14.67;;;5.37;;
8230;SDS011;4156;50.908;6.974;2023-05-27T04:28:17;12.80;;;4.77;;
8230;SDS011;4156;50.908;6.974;2023-05-27T04:30:42;11.10;;;4.10;;
8230;SDS011;4156;50.908;6.974;2023-05-27T04:33:08;11.73;;;4.37;;
8230;SDS011;4156;50.908;6.974;2023-05-27T04:35:34;11.57;;;4.13;;
8230;SDS011;4156;50.908;6.974;2023-05-27T04:38:00;12.50;;;3.83;;
8230;SDS011;4156;50.908;6.974;2023-05-27T04:40:26;12.40;;;4.37;;
8230;SDS011;4156;50.908;6.974;2023-05-27T04:42:53;20.80;;;4.73;;
8230;SDS011;4156;50.908;6.974;2023-05-27T04:45:19;13.40;;;4.67;;
8230;SDS011;4156;50.908;6.974;2023-05-27T04:47:45;15.20;;;4.30;;
8230;SDS011;4156;50.908;6.974;2023-05-27T04:50:10;12.43;;;4.83;;
8230;SDS011;4156;50.908;6.974;2023-05-27T04:52:37;14.53;;;4.33;;
8230;SDS011;4156;50.908;6.974;2023-05-27T04:55:07;8.17;;;4.10;;
8230;SDS011;4156;50.908;6.974;2023-05-27T04:57:34;12.20;;;4.20;;
8230;SDS011;4156;50.908;6.974;2023-05-27T05:00:01;12.90;;;4.10;;
8230;SDS011;4156;50.908;6.974;2023-05-27T05:02:27;13.07;;;4.27;;
8230;SDS011;4156;50.908;6.974;2023-05-27T05:05:06;12.43;;;4.30;;
8230;SDS011;4156;50.908;6.974;2023-05-27T05:07:39;13.43;;;4.20;;
8230;SDS011;4156;50.908;6.974;2023-05-27T05:10:06;14.63;;;4.73;;
8230;SDS011;4156;50.908;6.974;2023-05-27T05:12:33;14.40;;;4.03;;
8230;SDS011;4156;50.908;6.974;2023-05-27T05:14:58;13.73;;;4.30;;
8230;SDS011;4156;50.908;6.974;2023-05-27T05:17:24;8.80;;;4.07;;
8230;SDS011;4156;50.908;6.974;2023-05-27T05:19:53;10.47;;;3.80;;
8230;SDS011;4156;50.908;6.974;2023-05-27T05:22:19;10.93;;;4.10;;
8230;SDS011;4156;50.908;6.974;2023-05-27T05:24:45;17.50;;;4.67;;
8230;SDS011;4156;50.908;6.974;2023-05-27T05:27:11;11.43;;;4.40;;
8230;SDS011;4156;50.908;6.974;2023-05-27T05:29:37;9.87;;;4.60;;
8230;SDS011;4156;50.908;6.974;2023-05-27T05:32:02;11.53;;;4.67;;
8230;SDS011;4156;50.908;6.974;2023-05-27T05:34:28;12.90;;;4.57;;
8230;SDS011;4156;50.908;6.974;2023-05-27T05:36:54;17.10;;;4.40;;
8230;SDS011;4156;50.908;6.974;2023-05-27T05:39:20;9.33;;;3.67;;
8230;SDS011;4156;50.908;6.974;2023-05-27T05:41:46;9.90;;;3.80;;
8230;SDS011;4156;50.908;6.974;2023-05-27T05:44:11;7.33;;;3.70;;
8230;SDS011;4156;50.908;6.974;2023-05-27T05:46:37;11.27;;;4.30;;
8230;SDS011;4156;50.908;6.974;2023-05-27T05:49:03;13.27;;;4.07;;
8230;SDS011;4156;50.908;6.974;2023-05-27T05:51:29;9.50;;;4.17;;
8230;SDS011;4156;50.908;6.974;2023-05-27T05:53:56;11.07;;;3.90;;
8230;SDS011;4156;50.908;6.974;2023-05-27T05:56:22;9.87;;;4.10;;
8230;SDS011;4156;50.908;6.974;2023-05-27T05:58:47;12.10;;;4.60;;
8230;SDS011;4156;50.908;6.974;2023-05-27T06:01:13;13.63;;;3.97;;
8230;SDS011;4156;50.908;6.974;2023-05-27T06:03:38;10.73;;;4.23;;
8230;SDS011;4156;50.908;6.974;2023-05-27T06:06:04;8.87;;;4.77;;
8230;SDS011;4156;50.908;6.974;2023-05-27T06:08:30;8.10;;;3.57;;
8230;SDS011;4156;50.908;6.974;2023-05-27T06:10:55;10.87;;;4.00;;
8230;SDS011;4156;50.908;6.974;2023-05-27T06:13:21;9.30;;;4.13;;
8230;SDS011;4156;50.908;6.974;2023-05-27T06:15:46;11.63;;;4.00;;
8230;SDS011;4156;50.908;6.974;2023-05-27T06:18:12;8.53;;;3.60;;
8230;SDS011;4156;50.908;6.974;2023-05-27T06:20:37;7.40;;;3.50;;
8230;SDS011;4156;50.908;6.974;2023-05-27T06:23:03;9.40;;;4.03;;
8230;SDS011;4156;50.908;6.974;2023-05-27T06:25:28;8.60;;;4.10;;
8230;SDS011;4156;50.908;6.974;2023-05-27T06:27:54;10.27;;;4.60;;
8230;SDS011;4156;50.908;6.974;2023-05-27T06:30:19;10.10;;;4.07;;
8230;SDS011;4156;50.908;6.974;2023-05-27T06:32:45;10.23;;;4.00;;
8230;SDS011;4156;50.908;6.974;2023-05-27T06:35:10;9.83;;;3.90;;
8230;SDS011;4156;50.908;6.974;2023-05-27T06:37:36;10.83;;;3.80;;
8230;SDS011;4156;50.908;6.974;2023-05-27T06:40:02;8.00;;;4.10;;
8230;SDS011;4156;50.908;6.974;2023-05-27T06:42:28;10.10;;;4.23;;
8230;SDS011;4156;50.908;6.974;2023-05-27T06:44:53;10.70;;;4.20;;
8230;SDS011;4156;50.908;6.974;2023-05-27T06:47:19;8.40;;;4.33;;
8230;SDS011;4156;50.908;6.974;2023-05-27T06:49:45;8.83;;;3.83;;
8230;SDS011;4156;50.908;6.974;2023-05-27T06:52:10;10.23;;;3.53;;
8230;SDS011;4156;50.908;6.974;2023-05-27T06:54:36;12.00;;;4.33;;
8230;SDS011;4156;50.908;6.974;2023-05-27T06:57:01;9.40;;;3.43;;
8230;SDS011;4156;50.908;6.974;2023-05-27T06:59:27;12.85;;;4.65;;
8230;SDS011;4156;50.908;6.974;2023-05-27T07:01:53;10.23;;;4.17;;
8230;SDS011;4156;50.908;6.974;2023-05-27T07:04:19;7.27;;;3.77;;
8230;SDS011;4156;50.908;6.974;2023-05-27T07:06:44;12.67;;;3.90;;
8230;SDS011;4156;50.908;6.974;2023-05-27T07:09:10;21.40;;;4.53;;
8230;SDS011;4156;50.908;6.974;2023-05-27T07:11:36;9.20;;;3.93;;
8230;SDS011;4156;50.908;6.974;2023-05-27T07:14:01;12.50;;;4.20;;
8230;SDS011;4156;50.908;6.974;2023-05-27T07:16:27;9.57;;;4.23;;
8230;SDS011;4156;50.908;6.974;2023-05-27T07:18:52;9.17;;;4.00;;
8230;SDS011;4156;50.908;6.974;2023-05-27T07:21:18;12.80;;;4.27;;
8230;SDS011;4156;50.908;6.974;2023-05-27T07:23:43;9.70;;;3.90;;
8230;SDS011;4156;50.908;6.974;2023-05-27T07:26:09;9.20;;;4.00;;
8230;SDS011;4156;50.908;6.974;2023-05-27T07:28:35;8.23;;;3.50;;
8230;SDS011;4156;50.908;6.974;2023-05-27T07:31:02;7.10;;;3.37;;
8230;SDS011;4156;50.908;6.974;2023-05-27T07:33:28;10.20;;;4.97;;
8230;SDS011;4156;50.908;6.974;2023-05-27T07:35:53;13.53;;;4.37;;
8230;SDS011;4156;50.908;6.974;2023-05-27T07:38:19;9.03;;;3.80;;
8230;SDS011;4156;50.908;6.974;2023-05-27T07:40:44;14.03;;;4.60;;
8230;SDS011;4156;50.908;6.974;2023-05-27T07:43:10;7.43;;;3.70;;
8230;SDS011;4156;50.908;6.974;2023-05-27T07:45:36;8.47;;;3.90;;
8230;SDS011;4156;50.908;6.974;2023-05-27T07:48:01;11.30;;;4.07;;
8230;SDS011;4156;50.908;6.974;2023-05-27T07:50:27;8.97;;;3.53;;
8230;SDS011;4156;50.908;6.974;2023-05-27T07:52:52;10.80;;;3.80;;
8230;SDS011;4156;50.908;6.974;2023-05-27T07:55:18;7.40;;;3.40;;
8230;SDS011;4156;50.908;6.974;2023-05-27T07:57:43;9.33;;;3.90;;
8230;SDS011;4156;50.908;6.974;2023-05-27T08:00:09;6.87;;;3.20;;
8230;SDS011;4156;50.908;6.974;2023-05-27T08:02:35;8.47;;;4.30;;
8230;SDS011;4156;50.908;6.974;2023-05-27T08:05:01;10.67;;;3.87;;
8230;SDS011;4156;50.908;6.974;2023-05-27T08:07:28;7.50;;;3.23;;
8230;SDS011;4156;50.908;6.974;2023-05-27T08:09:54;8.43;;;3.83;;
8230;SDS011;4156;50.908;6.974;2023-05-27T08:12:20;10.37;;;3.93;;
8230;SDS011;4156;50.908;6.974;2023-05-27T08:14:45;14.40;;;4.90;;
8230;SDS011;4156;50.908;6.974;2023-05-27T08:17:11;9.63;;;3.70;;
8230;SDS011;4156;50.908;6.974;2023-05-27T08:19:36;7.47;;;3.53;;
8230;SDS011;4156;50.908;6.974;2023-05-27T08:22:02;9.80;;;4.17;;
8230;SDS011;4156;50.908;6.974;2023-05-27T08:24:28;9.40;;;4.00;;
8230;SDS011;4156;50.908;6.974;2023-05-27T08:26:55;10.43;;;3.90;;
8230;SDS011;4156;50.908;6.974;2023-05-27T08:29:21;8.33;;;3.70;;
8230;SDS011;4156;50.908;6.974;2023-05-27T08:31:48;7.77;;;3.87;;
8230;SDS011;4156;50.908;6.974;2023-05-27T08:34:16;8.50;;;3.67;;
8230;SDS011;4156;50.908;6.974;2023-05-27T08:36:42;7.50;;;3.43;;
8230;SDS011;4156;50.908;6.974;2023-05-27T08:39:08;12.97;;;4.33;;
8230;SDS011;4156;50.908;6.974;2023-05-27T08:41:34;7.40;;;3.50;;
8230;SDS011;4156;50.908;6.974;2023-05-27T08:44:01;5.47;;;3.00;;
8230;SDS011;4156;50.908;6.974;2023-05-27T08:46:27;7.87;;;3.30;;
8230;SDS011;4156;50.908;6.974;2023-05-27T08:48:53;9.73;;;3.60;;
8230;SDS011;4156;50.908;6.974;2023-05-27T08:51:20;7.13;;;3.00;;
8230;SDS011;4156;50.908;6.974;2023-05-27T08:53:47;6.30;;;3.27;;
8230;SDS011;4156;50.908;6.974;2023-05-27T08:56:14;7.20;;;3.20;;
8230;SDS011;4156;50.908;6.974;2023-05-27T08:58:42;12.47;;;3.60;;
8230;SDS011;4156;50.908;6.974;2023-05-27T09:01:09;8.37;;;3.40;;
8230;SDS011;4156;50.908;6.974;2023-05-27T09:03:35;14.20;;;4.13;;
8230;SDS011;4156;50.908;6.974;2023-05-27T09:06:02;9.93;;;4.17;;
8230;SDS011;4156;50.908;6.974;2023-05-27T09:08:29;10.30;;;3.67;;
8230;SDS011;4156;50.908;6.974;2023-05-27T09:10:55;7.67;;;3.70;;
8230;SDS011;4156;50.908;6.974;2023-05-27T09:13:27;7.87;;;3.87;;
8230;SDS011;4156;50.908;6.974;2023-05-27T09:16:01;6.97;;;3.27;;
8230;SDS011;4156;50.908;6.974;2023-05-27T09:18:29;8.40;;;3.60;;
8230;SDS011;4156;50.908;6.974;2023-05-27T09:20:56;6.93;;;3.37;;
8230;SDS011;4156;50.908;6.974;2023-05-27T09:23:22;5.67;;;3.23;;
8230;SDS011;4156;50.908;6.974;2023-05-27T09:25:48;6.70;;;2.90;;
8230;SDS011;4156;50.908;6.974;2023-05-27T09:28:22;10.53;;;4.10;;
8230;SDS011;4156;50.908;6.974;2023-05-27T09:31:21;7.57;;;3.53;;
8230;SDS011;4156;50.908;6.974;2023-05-27T09:33:40;7.80;;;3.30;;
8230;SDS011;4156;50.908;6.974;2023-05-27T09:36:06;10.17;;;3.47;;
8230;SDS011;4156;50.908;6.974;2023-05-27T09:38:34;10.27;;;4.10;;
8230;SDS011;4156;50.908;6.974;2023-05-27T09:41:01;9.10;;;3.20;;
8230;SDS011;4156;50.908;6.974;2023-05-27T09:43:27;8.13;;;3.30;;
8230;SDS011;4156;50.908;6.974;2023-05-27T09:46:00;8.57;;;3.17;;
8230;SDS011;4156;50.908;6.974;2023-05-27T09:48:31;8.23;;;3.00;;
8230;SDS011;4156;50.908;6.974;2023-05-27T09:50:57;7.67;;;3.43;;
8230;SDS011;4156;50.908;6.974;2023-05-27T09:53:24;6.60;;;3.00;;
8230;SDS011;4156;50.908;6.974;2023-05-27T09:55:53;7.73;;;3.50;;
8230;SDS011;4156;50.908;6.974;2023-05-27T09:58:20;10.27;;;3.90;;
8230;SDS011;4156;50.908;6.974;2023-05-27T10:00:47;6.77;;;3.43;;
8230;SDS011;4156;50.908;6.974;2023-05-27T10:03:14;10.77;;;3.70;;
8230;SDS011;4156;50.908;6.974;2023-05-27T10:05:42;8.23;;;3.10;;
8230;SDS011;4156;50.908;6.974;2023-05-27T10:08:10;8.20;;;3.77;;
8230;SDS011;4156;50.908;6.974;2023-05-27T10:10:37;7.80;;;3.07;;
8230;SDS011;4156;50.908;6.974;2023-05-27T10:13:02;5.13;;;2.80;;
8230;SDS011;4156;50.908;6.974;2023-05-27T10:15:29;6.60;;;3.17;;
8230;SDS011;4156;50.908;6.974;2023-05-27T10:18:01;7.73;;;2.90;;
8230;SDS011;4156;50.908;6.974;2023-05-27T10:20:39;7.97;;;2.80;;
8230;SDS011;4156;50.908;6.974;2023-05-27T10:25:51;10.37;;;3.97;;
8230;SDS011;4156;50.908;6.974;2023-05-27T10:28:28;6.70;;;3.03;;
8230;SDS011;4156;50.908;6.974;2023-05-27T10:31:02;7.17;;;3.23;;
8230;SDS011;4156;50.908;6.974;2023-05-27T10:33:36;10.33;;;3.87;;
8230;SDS011;4156;50.908;6.974;2023-05-27T10:36:14;7.87;;;3.43;;
8230;SDS011;4156;50.908;6.974;2023-05-27T10:38:42;8.13;;;3.20;;
8230;SDS011;4156;50.908;6.974;2023-05-27T10:41:08;5.30;;;2.93;;
8230;SDS011;4156;50.908;6.974;2023-05-27T10:43:35;5.43;;;2.73;;
8230;SDS011;4156;50.908;6.974;2023-05-27T10:46:01;7.97;;;3.27;;
8230;SDS011;4156;50.908;6.974;2023-05-27T10:48:32;6.23;;;3.17;;
8230;SDS011;4156;50.908;6.974;2023-05-27T10:51:00;5.97;;;3.13;;
8230;SDS011;4156;50.908;6.974;2023-05-27T10:53:27;9.87;;;3.10;;
8230;SDS011;4156;50.908;6.974;2023-05-27T10:55:53;9.20;;;3.40;;
8230;SDS011;4156;50.908;6.974;2023-05-27T10:58:21;6.10;;;2.93;;
8230;SDS011;4156;50.908;6.974;2023-05-27T11:00:48;9.53;;;3.13;;
8230;SDS011;4156;50.908;6.974;2023-05-27T11:03:22;5.33;;;2.87;;
8230;SDS011;4156;50.908;6.974;2023-05-27T11:06:02;8.90;;;3.37;;
8230;SDS011;4156;50.908;6.974;2023-05-27T11:08:29;8.43;;;3.50;;
8230;SDS011;4156;50.908;6.974;2023-05-27T11:11:06;6.53;;;3.00;;
8230;SDS011;4156;50.908;6.974;2023-05-27T11:13:38;8.00;;;2.90;;
8230;SDS011;4156;50.908;6.974;2023-05-27T11:16:06;6.20;;;3.03;;
8230;SDS011;4156;50.908;6.974;2023-05-27T11:18:39;8.37;;;3.53;;
8230;SDS011;4156;50.908;6.974;2023-05-27T11:21:07;8.77;;;3.23;;
8230;SDS011;4156;50.908;6.974;2023-05-27T11:23:34;6.00;;;2.90;;
8230;SDS011;4156;50.908;6.974;2023-05-27T11:28:47;7.23;;;3.17;;
8230;SDS011;4156;50.908;6.974;2023-05-27T11:31:29;8.93;;;3.37;;
8230;SDS011;4156;50.908;6.974;2023-05-27T11:33:55;8.37;;;2.83;;
8230;SDS011;4156;50.908;6.974;2023-05-27T11:36:24;7.37;;;3.07;;
8230;SDS011;4156;50.908;6.974;2023-05-27T11:41:17;5.07;;;3.10;;
8230;SDS011;4156;50.908;6.974;2023-05-27T11:43:47;8.80;;;3.33;;
8230;SDS011;4156;50.908;6.974;2023-05-27T11:46:22;6.10;;;2.93;;
8230;SDS011;4156;50.908;6.974;2023-05-27T11:48:49;7.40;;;3.20;;
8230;SDS011;4156;50.908;6.974;2023-05-27T11:51:16;9.03;;;3.30;;
8230;SDS011;4156;50.908;6.974;2023-05-27T11:53:44;5.67;;;2.90;;
8230;SDS011;4156;50.908;6.974;2023-05-27T11:56:10;8.03;;;3.23;;
8230;SDS011;4156;50.908;6.974;2023-05-27T11:58:36;10.47;;;3.30;;
8230;SDS011;4156;50.908;6.974;2023-05-27T12:01:04;6.17;;;2.97;;
8230;SDS011;4156;50.908;6.974;2023-05-27T12:03:32;5.10;;;2.77;;
8230;SDS011;4156;50.908;6.974;2023-05-27T12:05:58;9.40;;;3.10;;
8230;SDS011;4156;50.908;6.974;2023-05-27T12:08:24;4.30;;;2.40;;
8230;SDS011;4156;50.908;6.974;2023-05-27T12:10:50;3.93;;;2.63;;
8230;SDS011;4156;50.908;6.974;2023-05-27T12:13:18;7.23;;;3.10;;
8230;SDS011;4156;50.908;6.974;2023-05-27T12:15:45;5.33;;;2.90;;
8230;SDS011;4156;50.908;6.974;2023-05-27T12:18:10;7.17;;;3.20;;
8230;SDS011;4156;50.908;6.974;2023-05-27T12:20:36;6.00;;;2.80;;
8230;SDS011;4156;50.908;6.974;2023-05-27T12:23:01;6.80;;;3.07;;
8230;SDS011;4156;50.908;6.974;2023-05-27T12:25:27;4.50;;;2.60;;
8230;SDS011;4156;50.908;6.974;2023-05-27T12:27:52;7.17;;;2.70;;
8230;SDS011;4156;50.908;6.974;2023-05-27T12:30:18;5.07;;;2.83;;
8230;SDS011;4156;50.908;6.974;2023-05-27T12:32:44;6.53;;;2.90;;
8230;SDS011;4156;50.908;6.974;2023-05-27T12:35:09;7.13;;;3.13;;
8230;SDS011;4156;50.908;6.974;2023-05-27T12:37:35;5.70;;;2.77;;
8230;SDS011;4156;50.908;6.974;2023-05-27T12:40:01;4.83;;;2.80;;
8230;SDS011;4156;50.908;6.974;2023-05-27T12:42:30;6.63;;;2.80;;
8230;SDS011;4156;50.908;6.974;2023-05-27T12:44:57;4.10;;;2.57;;
8230;SDS011;4156;50.908;6.974;2023-05-27T12:47:23;6.47;;;3.00;;
8230;SDS011;4156;50.908;6.974;2023-05-27T12:49:48;6.23;;;2.70;;
8230;SDS011;4156;50.908;6.974;2023-05-27T12:52:14;5.23;;;2.60;;
8230;SDS011;4156;50.908;6.974;2023-05-27T12:54:39;4.57;;;2.50;;
8230;SDS011;4156;50.908;6.974;2023-05-27T12:57:05;5.00;;;2.53;;
8230;SDS011;4156;50.908;6.974;2023-05-27T12:59:31;5.03;;;2.73;;
8230;SDS011;4156;50.908;6.974;2023-05-27T13:01:58;7.50;;;3.13;;
8230;SDS011;4156;50.908;6.974;2023-05-27T13:04:24;6.83;;;3.03;;
8230;SDS011;4156;50.908;6.974;2023-05-27T13:06:49;4.40;;;2.40;;
8230;SDS011;4156;50.908;6.974;2023-05-27T13:09:15;4.70;;;2.57;;
8230;SDS011;4156;50.908;6.974;2023-05-27T13:11:41;5.10;;;2.63;;
8230;SDS011;4156;50.908;6.974;2023-05-27T13:14:06;5.87;;;3.03;;
8230;SDS011;4156;50.908;6.974;2023-05-27T13:16:35;4.47;;;2.73;;
8230;SDS011;4156;50.908;6.974;2023-05-27T13:19:01;4.23;;;2.40;;
8230;SDS011;4156;50.908;6.974;2023-05-27T13:21:27;5.17;;;2.73;;
8230;SDS011;4156;50.908;6.974;2023-05-27T13:23:53;4.93;;;2.73;;
8230;SDS011;4156;50.908;6.974;2023-05-27T13:26:19;5.07;;;2.70;;
8230;SDS011;4156;50.908;6.974;2023-05-27T13:28:45;4.67;;;2.50;;
8230;SDS011;4156;50.908;6.974;2023-05-27T13:31:11;5.17;;;2.90;;
8230;SDS011;4156;50.908;6.974;2023-05-27T13:33:37;3.70;;;2.53;;
8230;SDS011;4156;50.908;6.974;2023-05-27T13:36:03;4.27;;;2.60;;
8230;SDS011;4156;50.908;6.974;2023-05-27T13:38:29;3.70;;;2.80;;
8230;SDS011;4156;50.908;6.974;2023-05-27T13:40:54;5.33;;;2.73;;
8230;SDS011;4156;50.908;6.974;2023-05-27T13:43:20;4.77;;;3.07;;
8230;SDS011;4156;50.908;6.974;2023-05-27T13:45:46;3.90;;;2.87;;
8230;SDS011;4156;50.908;6.974;2023-05-27T13:48:11;5.37;;;2.67;;
8230;SDS011;4156;50.908;6.974;2023-05-27T13:50:37;4.73;;;2.70;;
8230;SDS011;4156;50.908;6.974;2023-05-27T13:53:02;3.23;;;2.50;;
8230;SDS011;4156;50.908;6.974;2023-05-27T13:55:28;5.30;;;2.67;;
8230;SDS011;4156;50.908;6.974;2023-05-27T13:57:54;4.73;;;3.10;;
8230;SDS011;4156;50.908;6.974;2023-05-27T14:00:20;4.07;;;2.57;;
8230;SDS011;4156;50.908;6.974;2023-05-27T14:02:46;5.13;;;2.77;;
8230;SDS011;4156;50.908;6.974;2023-05-27T14:05:12;4.10;;;2.67;;
8230;SDS011;4156;50.908;6.974;2023-05-27T14:07:41;3.87;;;2.53;;
8230;SDS011;4156;50.908;6.974;2023-05-27T14:10:08;6.73;;;2.50;;
8230;SDS011;4156;50.908;6.974;2023-05-27T14:12:35;5.87;;;2.93;;
8230;SDS011;4156;50.908;6.974;2023-05-27T14:15:01;5.20;;;2.67;;
8230;SDS011;4156;50.908;6.974;2023-05-27T14:17:28;4.80;;;3.00;;
8230;SDS011;4156;50.908;6.974;2023-05-27T14:19:54;7.33;;;2.70;;
8230;SDS011;4156;50.908;6.974;2023-05-27T14:22:21;4.57;;;2.93;;
8230;SDS011;4156;50.908;6.974;2023-05-27T14:24:47;4.87;;;2.60;;
8230;SDS011;4156;50.908;6.974;2023-05-27T14:27:13;4.93;;;2.90;;
8230;SDS011;4156;50.908;6.974;2023-05-27T14:29:39;4.83;;;2.80;;
8230;SDS011;4156;50.908;6.974;2023-05-27T14:32:05;4.50;;;2.73;;
8230;SDS011;4156;50.908;6.974;2023-05-27T14:34:32;6.23;;;2.83;;
8230;SDS011;4156;50.908;6.974;2023-05-27T14:36:57;5.17;;;3.00;;
8230;SDS011;4156;50.908;6.974;2023-05-27T14:39:23;5.77;;;2.83;;
8230;SDS011;4156;50.908;6.974;2023-05-27T14:41:48;5.83;;;2.87;;
8230;SDS011;4156;50.908;6.974;2023-05-27T14:44:14;3.40;;;2.50;;
8230;SDS011;4156;50.908;6.974;2023-05-27T14:46:40;4.00;;;2.60;;
8230;SDS011;4156;50.908;6.974;2023-05-27T14:49:06;5.40;;;2.97;;
8230;SDS011;4156;50.908;6.974;2023-05-27T14:51:31;3.37;;;2.40;;
8230;SDS011;4156;50.908;6.974;2023-05-27T14:53:57;4.50;;;3.07;;
8230;SDS011;4156;50.908;6.974;2023-05-27T14:56:23;4.40;;;2.97;;
8230;SDS011;4156;50.908;6.974;2023-05-27T14:58:48;4.17;;;2.73;;
8230;SDS011;4156;50.908;6.974;2023-05-27T15:01:15;6.53;;;3.23;;
8230;SDS011;4156;50.908;6.974;2023-05-27T15:03:41;4.83;;;2.70;;
8230;SDS011;4156;50.908;6.974;2023-05-27T15:06:07;4.83;;;2.57;;
8230;SDS011;4156;50.908;6.974;2023-05-27T15:08:34;6.17;;;3.13;;
8230;SDS011;4156;50.908;6.974;2023-05-27T15:11:00;5.67;;;2.90;;
8230;SDS011;4156;50.908;6.974;2023-05-27T15:13:26;3.50;;;2.60;;
8230;SDS011;4156;50.908;6.974;2023-05-27T15:15:52;3.87;;;2.87;;
8230;SDS011;4156;50.908;6.974;2023-05-27T15:18:18;5.50;;;2.80;;
8230;SDS011;4156;50.908;6.974;2023-05-27T15:20:43;4.50;;;2.50;;
8230;SDS011;4156;50.908;6.974;2023-05-27T15:23:09;3.20;;;2.40;;